Plato — 8PRX — position and weather

sailwx.info

Track history (hours):
 
Tides and Currents Weather Stations Pressure Air Temp Water Temp Dewpoint Dewpoint Depression Visibility Wind Speed Wind Dir Waves Ship Positions

Plato

Last reported at 2015-Mar-27 07:23 UTC. Time now 2015-Mar-27 08:13 UTC.
Position N 54°10' E 005°04'.

Length 88 m; draft 5 m.

Type: Ship. MMSI: 314189000.

Date/timePositionNaut miles runAvg speedWind from/ knotsBaromVisibWave heightAir tempDewpointWater temp
2015-Mar-27 07:23N 54°10' E 005°04'11 6.0
2015-Mar-27 05:32N 54°01' E 004°55'9 6.3
2015-Mar-27 04:07N 53°52' E 004°55'4 6.6
2015-Mar-27 03:33N 53°48' E 004°54'15 6.9
2015-Mar-27 01:23N 53°33' E 004°48'42 8.6
2015-Mar-26 20:32N 52°56' E 004°18'10 9.7
2015-Mar-26 19:33N 52°47' E 004°11'10 9.8
2015-Mar-26 18:33N 52°38' E 004°04'21 8.6
2015-Mar-26 16:05N 52°18' E 003°52'4 8.0
2015-Mar-26 15:32N 52°14' E 003°53'8 8.0
2015-Mar-26 14:33N 52°06' E 003°56'9 9.0
2015-Mar-26 13:33N 51°59' E 004°05'1111.3
2015-Mar-26 12:33N 51°54' E 004°21'2 2.4
2015-Mar-26 11:31N 51°54' E 004°25'0 0.0
2015-Mar-26 10:31N 51°54' E 004°25'0 0.0
2015-Mar-26 09:33N 51°54' E 004°25'0 0.0
2015-Mar-26 08:32N 51°54' E 004°25'0 0.0
2015-Mar-26 07:31N 51°54' E 004°25'0 0.0
2015-Mar-26 06:31N 51°54' E 004°25'0 0.0
2015-Mar-26 05:29N 51°54' E 004°25'0 0.0
2015-Mar-26 04:31N 51°54' E 004°25'0 0.0
2015-Mar-26 03:33N 51°54' E 004°25'0 0.0
2015-Mar-26 02:33N 51°54' E 004°25'0 0.0
2015-Mar-26 01:32N 51°54' E 004°25'0 0.0
2015-Mar-26 00:31N 51°54' E 004°25'0 0.0
2015-Mar-25 23:33N 51°54' E 004°25'0 0.0
2015-Mar-25 22:33N 51°54' E 004°25'0 0.0
2015-Mar-25 21:32N 51°54' E 004°25'0 0.0
2015-Mar-25 20:32N 51°54' E 004°25'0 0.0
2015-Mar-25 19:31N 51°54' E 004°25'0 0.0
2015-Mar-25 18:33N 51°54' E 004°25'0 0.1
2015-Mar-25 17:33N 51°55' E 004°25'1 0.9
2015-Mar-25 16:32N 51°54' E 004°24'0 0.0
2015-Mar-25 15:31N 51°54' E 004°24'0 0.0
2015-Mar-25 14:31N 51°54' E 004°24'0 0.0
2015-Mar-25 13:33N 51°54' E 004°24'0 0.0
2015-Mar-25 12:33N 51°54' E 004°24'0 0.0
2015-Mar-25 11:32N 51°54' E 004°24'0 0.0
2015-Mar-25 10:31N 51°54' E 004°24'0 0.0
2015-Mar-25 09:28N 51°54' E 004°24'0 0.0
2015-Mar-25 08:32N 51°54' E 004°24'0 0.0
2015-Mar-25 07:31N 51°54' E 004°24'0 0.0
2015-Mar-25 06:33N 51°54' E 004°24'0 0.0
2015-Mar-25 05:33N 51°54' E 004°24'0 0.0
2015-Mar-25 03:30N 51°54' E 004°24'0 0.0
2015-Mar-25 02:32N 51°54' E 004°24'0 0.0
2015-Mar-25 01:32N 51°54' E 004°24'0 0.0
2015-Mar-25 00:33N 51°54' E 004°24'0 0.0
2015-Mar-24 23:32N 51°54' E 004°24'0 0.0
2015-Mar-24 22:31N 51°54' E 004°24'0 0.0
2015-Mar-24 20:33N 51°54' E 004°24'0 0.0
2015-Mar-24 19:32N 51°54' E 004°24'0 0.0
2015-Mar-24 18:32N 51°54' E 004°24'0 0.0
2015-Mar-24 17:33N 51°54' E 004°24'0 0.0
2015-Mar-24 16:32N 51°54' E 004°24'0 0.0
2015-Mar-24 15:33N 51°54' E 004°24'0 0.0
2015-Mar-24 14:33N 51°54' E 004°24'0 0.3
2015-Mar-24 13:33N 51°54' E 004°23'7 6.7
2015-Mar-24 12:33N 51°56' E 004°13'7 7.2
2015-Mar-24 11:33N 51°59' E 004°03'8 7.6
2015-Mar-24 10:30N 51°59' E 003°50'64 9.1
2015-Mar-24 03:32N 51°30' E 002°18'2110.3
2015-Mar-24 01:33N 51°13' E 002°01'1010.2
2015-Mar-24 00:33N 51°07' E 001°47'8 8.6
2015-Mar-23 23:33N 51°01' E 001°38'  
2015-Mar-21 18:04N 51°60' W 006°54'4 8.6
2015-Mar-21 17:33N 52°04' W 006°56'8 8.1
2015-Mar-21 16:33N 52°12' W 006°56'5 4.9
2015-Mar-21 15:32N 52°16' W 007°02'0 0.0
2015-Mar-21 14:33N 52°16' W 007°02'0 0.0
2015-Mar-21 13:33N 52°16' W 007°02'0 0.0
2015-Mar-21 12:32N 52°16' W 007°02'0 0.0
2015-Mar-21 11:31N 52°16' W 007°02'0 0.0
2015-Mar-21 10:31N 52°16' W 007°02'0 0.0
2015-Mar-21 09:33N 52°16' W 007°02'0 0.0
2015-Mar-21 08:30N 52°16' W 007°02'0 0.0
2015-Mar-21 07:32N 52°16' W 007°02'0 0.0
2015-Mar-21 06:32N 52°16' W 007°02'0 0.0
2015-Mar-21 05:31N 52°16' W 007°02'0 0.0
2015-Mar-21 04:33N 52°16' W 007°02'0 0.0
2015-Mar-21 03:33N 52°16' W 007°02'0 0.0
2015-Mar-21 02:26N 52°16' W 007°02'0 0.0
2015-Mar-21 01:32N 52°16' W 007°02'0 0.0
2015-Mar-21 00:28N 52°16' W 007°02'0 0.0
2015-Mar-20 23:33N 52°16' W 007°02'0 0.0
2015-Mar-20 22:33N 52°16' W 007°02'0 0.0
2015-Mar-20 21:23N 52°16' W 007°02'0 0.0
2015-Mar-20 20:29N 52°16' W 007°02'0 0.0
2015-Mar-20 19:19N 52°16' W 007°02'0 0.0
2015-Mar-20 18:18N 52°16' W 007°02'0 0.0
2015-Mar-20 17:33N 52°16' W 007°02'0 0.0
2015-Mar-20 16:29N 52°16' W 007°02'0 0.0
2015-Mar-20 15:32N 52°16' W 007°02'0 0.0
2015-Mar-20 14:22N 52°16' W 007°02'0 0.0
2015-Mar-20 13:21N 52°16' W 007°02'0 0.0
2015-Mar-20 12:27N 52°16' W 007°02'0 0.0
2015-Mar-20 11:32N 52°16' W 007°02'0 0.0
2015-Mar-20 10:26N 52°16' W 007°02'0 0.0
2015-Mar-20 09:31N 52°16' W 007°02'0 0.0
2015-Mar-20 08:31N 52°16' W 007°02'0 0.0
2015-Mar-20 07:33N 52°16' W 007°02'0 0.0
2015-Mar-20 06:29N 52°16' W 007°02'0 0.0
2015-Mar-20 05:32N 52°16' W 007°02'0 0.0
2015-Mar-20 04:31N 52°16' W 007°02'0 0.0
2015-Mar-20 03:31N 52°16' W 007°02'0 0.0
2015-Mar-20 02:30N 52°16' W 007°02'0 0.0
2015-Mar-20 01:33N 52°16' W 007°02'0 0.0
2015-Mar-20 00:32N 52°16' W 007°02'0 0.0
2015-Mar-19 23:31N 52°16' W 007°02'0 0.0
2015-Mar-19 22:31N 52°16' W 007°02'0 0.0
2015-Mar-19 21:33N 52°16' W 007°02'0 0.0
2015-Mar-19 20:33N 52°16' W 007°02'0 0.0
2015-Mar-19 19:32N 52°16' W 007°02'0 0.0
2015-Mar-19 18:31N 52°16' W 007°02'0 0.0
2015-Mar-19 17:33N 52°16' W 007°02'5 5.2
2015-Mar-19 16:31N 52°21' W 006°60'1 0.0
2015-Mar-17 15:19N 52°20' W 006°60'5 6.0
2015-Mar-17 14:34N 52°16' W 006°59'7 6.6
2015-Mar-17 13:34N 52°09' W 006°57'1 1.1
2015-Mar-17 12:34N 52°09' W 006°58'2 2.3
2015-Mar-17 11:34N 52°06' W 006°58'8 8.0
2015-Mar-17 10:32N 51°59' W 006°53'  
Track history (hours):
 
Tides and Currents Weather Stations Pressure Air Temp Water Temp Dewpoint Dewpoint Depression Visibility Wind Speed Wind Dir Waves Ship Positions

Plato

Last reported at 2015-Mar-27 07:23 UTC. Time now 2015-Mar-27 08:13 UTC.
Position N 54°10' E 005°04'.

Length 88 m; draft 5 m.

Type: Ship. MMSI: 314189000.

Date/timePositionNaut miles runAvg speedWind from/ knotsBaromVisibWave heightAir tempDewpointWater temp
2015-Mar-27 07:23N 54°10' E 005°04'11 6.0
2015-Mar-27 05:32N 54°01' E 004°55'9 6.3
2015-Mar-27 04:07N 53°52' E 004°55'4 6.6
2015-Mar-27 03:33N 53°48' E 004°54'15 6.9
2015-Mar-27 01:23N 53°33' E 004°48'42 8.6
2015-Mar-26 20:32N 52°56' E 004°18'10 9.7
2015-Mar-26 19:33N 52°47' E 004°11'10 9.8
2015-Mar-26 18:33N 52°38' E 004°04'21 8.6
2015-Mar-26 16:05N 52°18' E 003°52'4 8.0
2015-Mar-26 15:32N 52°14' E 003°53'8 8.0
2015-Mar-26 14:33N 52°06' E 003°56'9 9.0
2015-Mar-26 13:33N 51°59' E 004°05'1111.3
2015-Mar-26 12:33N 51°54' E 004°21'2 2.4
2015-Mar-26 11:31N 51°54' E 004°25'0 0.0
2015-Mar-26 10:31N 51°54' E 004°25'0 0.0
2015-Mar-26 09:33N 51°54' E 004°25'0 0.0
2015-Mar-26 08:32N 51°54' E 004°25'0 0.0
2015-Mar-26 07:31N 51°54' E 004°25'0 0.0
2015-Mar-26 06:31N 51°54' E 004°25'0 0.0
2015-Mar-26 05:29N 51°54' E 004°25'0 0.0
2015-Mar-26 04:31N 51°54' E 004°25'0 0.0
2015-Mar-26 03:33N 51°54' E 004°25'0 0.0
2015-Mar-26 02:33N 51°54' E 004°25'0 0.0
2015-Mar-26 01:32N 51°54' E 004°25'0 0.0
2015-Mar-26 00:31N 51°54' E 004°25'0 0.0
2015-Mar-25 23:33N 51°54' E 004°25'0 0.0
2015-Mar-25 22:33N 51°54' E 004°25'0 0.0
2015-Mar-25 21:32N 51°54' E 004°25'0 0.0
2015-Mar-25 20:32N 51°54' E 004°25'0 0.0
2015-Mar-25 19:31N 51°54' E 004°25'0 0.0
2015-Mar-25 18:33N 51°54' E 004°25'0 0.1
2015-Mar-25 17:33N 51°55' E 004°25'1 0.9
2015-Mar-25 16:32N 51°54' E 004°24'0 0.0
2015-Mar-25 15:31N 51°54' E 004°24'0 0.0
2015-Mar-25 14:31N 51°54' E 004°24'0 0.0
2015-Mar-25 13:33N 51°54' E 004°24'0 0.0
2015-Mar-25 12:33N 51°54' E 004°24'0 0.0
2015-Mar-25 11:32N 51°54' E 004°24'0 0.0
2015-Mar-25 10:31N 51°54' E 004°24'0 0.0
2015-Mar-25 09:28N 51°54' E 004°24'0 0.0
2015-Mar-25 08:32N 51°54' E 004°24'0 0.0
2015-Mar-25 07:31N 51°54' E 004°24'0 0.0
2015-Mar-25 06:33N 51°54' E 004°24'0 0.0
2015-Mar-25 05:33N 51°54' E 004°24'0 0.0
2015-Mar-25 03:30N 51°54' E 004°24'0 0.0
2015-Mar-25 02:32N 51°54' E 004°24'0 0.0
2015-Mar-25 01:32N 51°54' E 004°24'0 0.0
2015-Mar-25 00:33N 51°54' E 004°24'0 0.0
2015-Mar-24 23:32N 51°54' E 004°24'0 0.0
2015-Mar-24 22:31N 51°54' E 004°24'0 0.0
2015-Mar-24 20:33N 51°54' E 004°24'0 0.0
2015-Mar-24 19:32N 51°54' E 004°24'0 0.0
2015-Mar-24 18:32N 51°54' E 004°24'0 0.0
2015-Mar-24 17:33N 51°54' E 004°24'0 0.0
2015-Mar-24 16:32N 51°54' E 004°24'0 0.0
2015-Mar-24 15:33N 51°54' E 004°24'0 0.0
2015-Mar-24 14:33N 51°54' E 004°24'0 0.3
2015-Mar-24 13:33N 51°54' E 004°23'7 6.7
2015-Mar-24 12:33N 51°56' E 004°13'7 7.2
2015-Mar-24 11:33N 51°59' E 004°03'8 7.6
2015-Mar-24 10:30N 51°59' E 003°50'64 9.1
2015-Mar-24 03:32N 51°30' E 002°18'2110.3
2015-Mar-24 01:33N 51°13' E 002°01'1010.2
2015-Mar-24 00:33N 51°07' E 001°47'8 8.6
2015-Mar-23 23:33N 51°01' E 001°38'  
2015-Mar-21 18:04N 51°60' W 006°54'4 8.6
2015-Mar-21 17:33N 52°04' W 006°56'8 8.1
2015-Mar-21 16:33N 52°12' W 006°56'5 4.9
2015-Mar-21 15:32N 52°16' W 007°02'0 0.0
2015-Mar-21 14:33N 52°16' W 007°02'0 0.0
2015-Mar-21 13:33N 52°16' W 007°02'0 0.0
2015-Mar-21 12:32N 52°16' W 007°02'0 0.0
2015-Mar-21 11:31N 52°16' W 007°02'0 0.0
2015-Mar-21 10:31N 52°16' W 007°02'0 0.0
2015-Mar-21 09:33N 52°16' W 007°02'0 0.0
2015-Mar-21 08:30N 52°16' W 007°02'0 0.0
2015-Mar-21 07:32N 52°16' W 007°02'0 0.0
2015-Mar-21 06:32N 52°16' W 007°02'0 0.0
2015-Mar-21 05:31N 52°16' W 007°02'0 0.0
2015-Mar-21 04:33N 52°16' W 007°02'0 0.0
2015-Mar-21 03:33N 52°16' W 007°02'0 0.0
2015-Mar-21 02:26N 52°16' W 007°02'0 0.0
2015-Mar-21 01:32N 52°16' W 007°02'0 0.0
2015-Mar-21 00:28N 52°16' W 007°02'0 0.0
2015-Mar-20 23:33N 52°16' W 007°02'0 0.0
2015-Mar-20 22:33N 52°16' W 007°02'0 0.0
2015-Mar-20 21:23N 52°16' W 007°02'0 0.0
2015-Mar-20 20:29N 52°16' W 007°02'0 0.0
2015-Mar-20 19:19N 52°16' W 007°02'0 0.0
2015-Mar-20 18:18N 52°16' W 007°02'0 0.0
2015-Mar-20 17:33N 52°16' W 007°02'0 0.0
2015-Mar-20 16:29N 52°16' W 007°02'0 0.0
2015-Mar-20 15:32N 52°16' W 007°02'0 0.0
2015-Mar-20 14:22N 52°16' W 007°02'0 0.0
2015-Mar-20 13:21N 52°16' W 007°02'0 0.0
2015-Mar-20 12:27N 52°16' W 007°02'0 0.0
2015-Mar-20 11:32N 52°16' W 007°02'0 0.0
2015-Mar-20 10:26N 52°16' W 007°02'0 0.0
2015-Mar-20 09:31N 52°16' W 007°02'0 0.0
2015-Mar-20 08:31N 52°16' W 007°02'0 0.0
2015-Mar-20 07:33N 52°16' W 007°02'0 0.0
2015-Mar-20 06:29N 52°16' W 007°02'0 0.0
2015-Mar-20 05:32N 52°16' W 007°02'0 0.0
2015-Mar-20 04:31N 52°16' W 007°02'0 0.0
2015-Mar-20 03:31N 52°16' W 007°02'0 0.0
2015-Mar-20 02:30N 52°16' W 007°02'0 0.0
2015-Mar-20 01:33N 52°16' W 007°02'0 0.0
2015-Mar-20 00:32N 52°16' W 007°02'0 0.0
2015-Mar-19 23:31N 52°16' W 007°02'0 0.0
2015-Mar-19 22:31N 52°16' W 007°02'0 0.0
2015-Mar-19 21:33N 52°16' W 007°02'0 0.0
2015-Mar-19 20:33N 52°16' W 007°02'0 0.0
2015-Mar-19 19:32N 52°16' W 007°02'0 0.0
2015-Mar-19 18:31N 52°16' W 007°02'0 0.0
2015-Mar-19 17:33N 52°16' W 007°02'5 5.2
2015-Mar-19 16:31N 52°21' W 006°60'1 0.0
2015-Mar-17 15:19N 52°20' W 006°60'5 6.0
2015-Mar-17 14:34N 52°16' W 006°59'7 6.6
2015-Mar-17 13:34N 52°09' W 006°57'1 1.1
2015-Mar-17 12:34N 52°09' W 006°58'2 2.3
2015-Mar-17 11:34N 52°06' W 006°58'8 8.0
2015-Mar-17 10:32N 51°59' W 006°53'  

Dump ship's entire track history